createdAt,value
2016-10-28T00:00:16.999Z,10.73
2016-10-28T00:01:16.984Z,10.64
2016-10-28T00:02:16.989Z,10.78
2016-10-28T00:03:16.972Z,10.79
2016-10-28T00:04:17.265Z,10.7
2016-10-28T00:05:16.979Z,10.7
2016-10-28T00:06:16.942Z,10.76
2016-10-28T00:07:16.940Z,10.76
2016-10-28T00:08:16.939Z,10.74
2016-10-28T00:09:16.928Z,10.76
2016-10-28T00:10:16.918Z,10.67
2016-10-28T00:11:16.908Z,10.64
2016-10-28T00:12:16.907Z,10.61
2016-10-28T00:13:16.908Z,10.71
2016-10-28T00:14:16.918Z,10.61
2016-10-28T00:15:16.872Z,10.67
2016-10-28T00:16:16.871Z,10.63
2016-10-28T00:17:16.866Z,10.66
2016-10-28T00:18:16.851Z,10.7
2016-10-28T00:19:16.848Z,10.61
2016-10-28T00:20:16.834Z,10.61
2016-10-28T00:21:16.830Z,10.61
2016-10-28T00:22:16.820Z,10.63
2016-10-28T00:23:16.820Z,10.64
2016-10-28T00:24:16.801Z,10.59
2016-10-28T00:25:16.796Z,10.56
2016-10-28T00:26:16.798Z,10.52
2016-10-28T00:27:16.807Z,10.51
2016-10-28T00:28:16.777Z,10.45
2016-10-28T00:29:16.769Z,10.42
2016-10-28T00:30:16.758Z,10.33
2016-10-28T00:31:16.755Z,10.3
2016-10-28T00:32:16.744Z,10.34
2016-10-28T00:33:17.039Z,10.32
2016-10-28T00:34:16.760Z,10.26
2016-10-28T00:35:16.724Z,10.33
2016-10-28T00:36:18.013Z,10.3
2016-10-28T00:37:17.805Z,10.27
2016-10-28T00:38:16.693Z,10.27
2016-10-28T00:39:17.639Z,10.3
2016-10-28T00:40:17.685Z,10.22
2016-10-28T00:41:16.926Z,10.29
2016-10-28T00:42:17.996Z,10.36
2016-10-28T00:43:16.694Z,10.32
2016-10-28T00:44:19.371Z,10.3
2016-10-28T00:45:19.219Z,10.34
2016-10-28T00:46:17.135Z,10.27
2016-10-28T00:47:17.533Z,10.3
2016-10-28T00:48:17.121Z,10.29
2016-10-28T00:49:16.609Z,10.32
2016-10-28T00:50:16.608Z,10.34
2016-10-28T00:52:19.913Z,10.26
2016-10-28T00:53:17.556Z,10.34
2016-10-28T00:54:17.191Z,10.32
2016-10-28T00:55:16.871Z,10.41
2016-10-28T00:56:17.145Z,10.29
2016-10-28T00:57:17.409Z,10.34
2016-10-28T00:58:16.546Z,10.45
2016-10-28T00:59:16.840Z,10.32
2016-10-28T01:00:16.533Z,10.38
2016-10-28T01:01:16.518Z,10.33
2016-10-28T01:02:16.504Z,10.32
2016-10-28T01:03:16.501Z,10.41
2016-10-28T01:04:16.528Z,10.29
2016-10-28T01:05:16.481Z,10.34
2016-10-28T01:06:16.487Z,10.32
2016-10-28T01:07:16.470Z,10.27
2016-10-28T01:08:16.465Z,10.36
2016-10-28T01:09:16.458Z,10.27
2016-10-28T01:10:16.781Z,10.34
2016-10-28T01:11:16.443Z,10.34
2016-10-28T01:12:16.441Z,10.3
2016-10-28T01:13:16.427Z,10.27
2016-10-28T01:14:16.416Z,10.34
2016-10-28T01:15:16.414Z,10.3
2016-10-28T01:16:16.402Z,10.4
2016-10-28T01:17:16.394Z,10.26
2016-10-28T01:18:16.389Z,10.25
2016-10-28T01:19:16.380Z,10.34
2016-10-28T01:20:16.379Z,10.23
2016-10-28T01:21:16.363Z,10.26
2016-10-28T01:22:16.355Z,10.26
2016-10-28T01:23:16.351Z,10.34
2016-10-28T01:24:16.344Z,10.38
2016-10-28T01:25:16.337Z,10.33
2016-10-28T01:26:16.327Z,10.42
2016-10-28T01:27:16.315Z,10.47
2016-10-28T01:28:16.317Z,10.44
2016-10-28T01:29:16.310Z,10.47
2016-10-28T01:30:16.295Z,10.44
2016-10-28T01:31:16.289Z,10.45
2016-10-28T01:32:16.282Z,10.56
2016-10-28T01:33:16.271Z,10.48
2016-10-28T01:34:16.262Z,10.63
2016-10-28T01:35:16.259Z,10.63
2016-10-28T01:36:16.254Z,10.53
2016-10-28T01:37:16.236Z,10.61
2016-10-28T01:38:16.237Z,10.71
2016-10-28T01:39:16.229Z,10.66
2016-10-28T01:40:16.220Z,10.68
2016-10-28T01:41:16.211Z,10.7
2016-10-28T01:42:16.209Z,10.61
2016-10-28T01:43:16.196Z,10.78
2016-10-28T01:44:16.190Z,10.78
2016-10-28T01:45:16.179Z,10.74
2016-10-28T01:46:16.183Z,10.7
2016-10-28T01:47:16.169Z,10.78
2016-10-28T01:48:16.161Z,10.78
2016-10-28T01:49:16.147Z,10.76
2016-10-28T01:50:16.146Z,10.84
2016-10-28T01:51:16.160Z,10.79
2016-10-28T01:52:16.143Z,10.79
2016-10-28T01:53:16.131Z,10.71
2016-10-28T01:54:16.261Z,10.81
2016-10-28T01:55:16.106Z,10.76
2016-10-28T01:57:16.443Z,10.91
2016-10-28T01:58:17.487Z,10.79
2016-10-28T01:59:16.070Z,10.86
2016-10-28T02:00:16.071Z,10.89
2016-10-28T02:01:16.331Z,10.85
2016-10-28T02:02:18.040Z,10.86
2016-10-28T02:03:33.709Z,10.88
2016-10-28T02:04:16.921Z,10.91
2016-10-28T02:05:31.690Z,10.89
2016-10-28T02:06:17.677Z,10.88
2016-10-28T02:07:16.017Z,10.94
2016-10-28T02:08:16.610Z,10.94
2016-10-28T02:09:16.439Z,11.06
2016-10-28T02:10:17.345Z,11.03
2016-10-28T02:11:15.990Z,11.06
2016-10-28T02:12:16.475Z,10.99
2016-10-28T02:13:15.970Z,11.03
2016-10-28T02:14:15.961Z,10.88
2016-10-28T02:15:16.445Z,10.89
2016-10-28T02:16:15.952Z,10.86
2016-10-28T02:17:15.954Z,10.85
2016-10-28T02:18:15.944Z,10.84
2016-10-28T02:19:15.944Z,10.74
2016-10-28T02:20:15.932Z,10.7
2016-10-28T02:21:15.955Z,10.74
2016-10-28T02:22:15.912Z,10.63
2016-10-28T02:23:15.918Z,10.66
2016-10-28T02:24:15.924Z,10.63
2016-10-28T02:25:15.880Z,10.55
2016-10-28T02:26:15.967Z,10.55
2016-10-28T02:27:15.871Z,10.47
2016-10-28T02:28:15.862Z,10.51
2016-10-28T02:29:15.860Z,10.48
2016-10-28T02:30:15.849Z,10.41
2016-10-28T02:31:15.843Z,10.52
2016-10-28T02:32:15.836Z,10.48
2016-10-28T02:33:15.829Z,10.42
2016-10-28T02:34:15.819Z,10.56
2016-10-28T02:35:15.814Z,10.48
2016-10-28T02:36:15.805Z,10.52
2016-10-28T02:37:15.803Z,10.52
2016-10-28T02:38:15.788Z,10.63
2016-10-28T02:39:15.782Z,10.63
2016-10-28T02:40:15.785Z,10.6
2016-10-28T02:41:15.767Z,10.7
2016-10-28T02:42:15.759Z,10.73
2016-10-28T02:43:15.750Z,10.7
2016-10-28T02:44:15.742Z,10.79
2016-10-28T02:45:15.739Z,10.78
2016-10-28T02:46:15.727Z,10.7
2016-10-28T02:47:15.723Z,10.71
2016-10-28T02:48:15.712Z,10.76
2016-10-28T02:49:15.720Z,10.71
2016-10-28T02:50:15.743Z,10.74
2016-10-28T02:51:15.691Z,10.79
2016-10-28T02:52:15.683Z,10.84
2016-10-28T02:53:15.682Z,10.86
2016-10-28T02:54:15.675Z,10.89
2016-10-28T02:55:15.665Z,10.84
2016-10-28T02:56:15.662Z,10.96
2016-10-28T02:57:15.650Z,10.86
2016-10-28T02:58:15.641Z,10.91
2016-10-28T02:59:15.636Z,10.89
2016-10-28T03:00:15.626Z,11.02
2016-10-28T03:01:15.621Z,10.92
2016-10-28T03:02:15.616Z,11
2016-10-28T03:03:15.606Z,10.92
2016-10-28T03:04:15.608Z,11
2016-10-28T03:05:15.590Z,11
2016-10-28T03:06:15.588Z,10.96
2016-10-28T03:07:15.577Z,11.07
2016-10-28T03:08:15.569Z,11.07
2016-10-28T03:09:15.568Z,11.06
2016-10-28T03:10:15.555Z,11.1
2016-10-28T03:11:15.550Z,11.07
2016-10-28T03:12:16.143Z,11.11
2016-10-28T03:13:16.334Z,11.15
2016-10-28T03:14:15.874Z,11.11
2016-10-28T03:15:30.431Z,11.1
2016-10-28T03:16:16.062Z,11.06
2016-10-28T03:17:15.505Z,11.14
2016-10-28T03:18:15.497Z,11.09
2016-10-28T03:19:17.126Z,11.17
2016-10-28T03:20:16.001Z,11.1
2016-10-28T03:21:16.833Z,11.17
2016-10-28T03:22:31.507Z,11.09
2016-10-28T03:23:16.371Z,11.1
2016-10-28T03:24:15.645Z,11.18
2016-10-28T03:26:15.586Z,11.27
2016-10-28T03:27:15.435Z,11.25
2016-10-28T03:28:16.108Z,11.27
2016-10-28T03:29:15.688Z,11.25
2016-10-28T03:30:15.415Z,11.22
2016-10-28T03:31:15.611Z,11.22
2016-10-28T03:32:15.743Z,11.22
2016-10-28T03:33:15.512Z,11.32
2016-10-28T03:34:15.380Z,11.28
2016-10-28T03:35:15.376Z,11.27
2016-10-28T03:36:15.366Z,11.29
2016-10-28T03:37:15.362Z,11.29
2016-10-28T03:38:15.361Z,11.35
2016-10-28T03:39:15.350Z,11.27
2016-10-28T03:40:15.338Z,11.28
2016-10-28T03:41:15.332Z,11.27
2016-10-28T03:42:15.325Z,11.32
2016-10-28T03:43:15.325Z,11.27
2016-10-28T03:44:15.311Z,11.29
2016-10-28T03:45:15.303Z,11.29
2016-10-28T03:46:15.300Z,11.29
2016-10-28T03:47:15.291Z,11.32
2016-10-28T03:48:15.286Z,11.24
2016-10-28T03:49:15.272Z,11.28
2016-10-28T03:50:15.279Z,11.32
2016-10-28T03:51:15.262Z,11.33
2016-10-28T03:52:15.252Z,11.22
2016-10-28T03:53:15.252Z,11.29
2016-10-28T03:54:15.244Z,11.24
2016-10-28T03:55:15.232Z,11.28
2016-10-28T03:56:15.230Z,11.27
2016-10-28T03:57:15.227Z,11.27
2016-10-28T03:58:15.216Z,11.28
2016-10-28T03:59:15.215Z,11.33
2016-10-28T04:00:15.202Z,11.25
2016-10-28T04:01:15.193Z,11.36
2016-10-28T04:02:15.180Z,11.28
2016-10-28T04:03:15.177Z,11.4
2016-10-28T04:04:15.172Z,11.29
2016-10-28T04:05:15.166Z,11.35
2016-10-28T04:06:15.157Z,11.39
2016-10-28T04:07:15.148Z,11.33
2016-10-28T04:08:15.143Z,11.27
2016-10-28T04:09:15.135Z,11.32
2016-10-28T04:10:15.135Z,11.28
2016-10-28T04:11:15.124Z,11.28
2016-10-28T04:12:15.111Z,11.35
2016-10-28T04:13:15.105Z,11.29
2016-10-28T04:14:15.100Z,11.22
2016-10-28T04:15:15.088Z,11.33
2016-10-28T04:16:15.090Z,11.37
2016-10-28T04:17:15.076Z,11.29
2016-10-28T04:18:15.076Z,11.32
2016-10-28T04:19:15.066Z,11.32
2016-10-28T04:20:15.055Z,11.28
2016-10-28T04:21:15.047Z,11.35
2016-10-28T04:22:15.041Z,11.28
2016-10-28T04:23:15.039Z,11.24
2016-10-28T04:24:15.031Z,11.27
2016-10-28T04:25:15.033Z,11.36
2016-10-28T04:26:15.020Z,11.24
2016-10-28T04:27:15.010Z,11.29
2016-10-28T04:28:15.001Z,11.17
2016-10-28T04:29:14.989Z,11.07
2016-10-28T04:30:14.987Z,11.1
2016-10-28T04:31:15.526Z,11.07
2016-10-28T04:32:15.824Z,10.89
2016-10-28T04:33:29.874Z,10.88
2016-10-28T04:34:14.961Z,10.76
2016-10-28T04:35:14.947Z,10.74
2016-10-28T04:36:14.997Z,10.67
2016-10-28T04:37:16.355Z,10.67
2016-10-28T04:38:16.401Z,10.52
2016-10-28T04:39:16.316Z,10.56
2016-10-28T04:40:15.622Z,10.56
2016-10-28T04:41:15.249Z,10.47
2016-10-28T04:42:16.395Z,10.44
2016-10-28T04:43:15.199Z,10.51
2016-10-28T04:44:15.182Z,10.44
2016-10-28T04:45:14.883Z,10.34
2016-10-28T04:46:17.294Z,10.42
2016-10-28T04:48:14.856Z,10.42
2016-10-28T04:49:15.790Z,10.42
2016-10-28T04:50:14.834Z,10.51
2016-10-28T04:51:14.861Z,10.45
2016-10-28T04:52:14.822Z,10.44
2016-10-28T04:53:14.815Z,10.59
2016-10-28T04:54:14.809Z,10.56
2016-10-28T04:55:14.800Z,10.59
2016-10-28T04:56:14.799Z,10.51
2016-10-28T04:57:14.789Z,10.55
2016-10-28T04:58:14.781Z,10.59
2016-10-28T04:59:14.772Z,10.66
2016-10-28T05:00:14.763Z,10.66
2016-10-28T05:01:14.763Z,10.66
2016-10-28T05:02:14.744Z,10.64
2016-10-28T05:03:14.742Z,10.74
2016-10-28T05:04:14.730Z,10.78
2016-10-28T05:05:14.722Z,10.74
2016-10-28T05:06:14.724Z,10.81
2016-10-28T05:07:14.719Z,10.73
2016-10-28T05:08:14.707Z,10.66
2016-10-28T05:09:14.695Z,10.64
2016-10-28T05:10:14.684Z,10.66
2016-10-28T05:11:14.679Z,10.74
2016-10-28T05:12:14.672Z,10.73
2016-10-28T05:13:14.668Z,10.68
2016-10-28T05:14:14.664Z,10.74
2016-10-28T05:15:14.650Z,10.7
2016-10-28T05:16:14.641Z,10.78
2016-10-28T05:17:14.639Z,10.76
2016-10-28T05:18:14.629Z,10.82
2016-10-28T05:19:14.623Z,10.89
2016-10-28T05:20:14.608Z,10.86
2016-10-28T05:21:14.606Z,10.89
2016-10-28T05:22:14.593Z,10.89
2016-10-28T05:23:14.590Z,10.89
2016-10-28T05:24:14.581Z,10.91
2016-10-28T05:25:14.572Z,10.82
2016-10-28T05:26:14.564Z,10.92
2016-10-28T05:27:14.597Z,10.91
2016-10-28T05:28:14.551Z,10.86
2016-10-28T05:29:14.547Z,10.85
2016-10-28T05:30:14.537Z,10.88
2016-10-28T05:31:14.531Z,10.84
2016-10-28T05:32:14.520Z,10.78
2016-10-28T05:33:14.516Z,10.79
2016-10-28T05:34:14.508Z,10.71
2016-10-28T05:35:14.495Z,10.76
2016-10-28T05:36:14.492Z,10.67
2016-10-28T05:37:14.482Z,10.63
2016-10-28T05:38:14.472Z,10.67
2016-10-28T05:39:14.463Z,10.66
2016-10-28T05:40:14.460Z,10.63
2016-10-28T05:41:14.450Z,10.52
2016-10-28T05:42:14.472Z,10.59
2016-10-28T05:43:14.436Z,10.52
2016-10-28T05:44:14.429Z,10.55
2016-10-28T05:45:14.423Z,10.61
2016-10-28T05:46:14.464Z,10.63
2016-10-28T05:47:14.411Z,10.64
2016-10-28T05:48:14.404Z,10.67
2016-10-28T05:49:14.945Z,10.61
2016-10-28T05:50:15.385Z,10.76
2016-10-28T05:51:14.377Z,10.73
2016-10-28T05:52:15.168Z,10.68
2016-10-28T05:53:14.405Z,10.7
2016-10-28T05:54:14.360Z,10.78
2016-10-28T05:55:17.365Z,10.81
2016-10-28T05:56:14.656Z,10.91
2016-10-28T05:57:15.727Z,10.85
2016-10-28T05:58:30.833Z,10.89
2016-10-28T05:59:14.720Z,10.89
2016-10-28T06:00:15.752Z,10.97
2016-10-28T06:01:15.089Z,10.94
2016-10-28T06:02:14.603Z,10.92
2016-10-28T06:03:14.284Z,11.04
2016-10-28T06:04:15.219Z,11.1
2016-10-28T06:06:14.832Z,11.07
2016-10-28T06:07:14.900Z,11.03
2016-10-28T06:08:14.245Z,11.22
2016-10-28T06:09:15.493Z,11.17
2016-10-28T06:10:14.540Z,11.21
2016-10-28T06:11:14.233Z,11.24
2016-10-28T06:12:14.224Z,11.22
2016-10-28T06:13:14.214Z,11.25
2016-10-28T06:14:14.211Z,11.28
2016-10-28T06:15:14.195Z,11.22
2016-10-28T06:16:14.192Z,11.32
2016-10-28T06:17:14.191Z,11.27
2016-10-28T06:18:14.173Z,11.29
2016-10-28T06:19:14.201Z,11.19
2016-10-28T06:20:14.195Z,11.35
2016-10-28T06:21:14.161Z,11.39
2016-10-28T06:22:14.148Z,11.36
2016-10-28T06:23:14.146Z,11.35
2016-10-28T06:24:14.133Z,11.46
2016-10-28T06:25:14.135Z,11.49
2016-10-28T06:26:14.124Z,11.49
2016-10-28T06:27:14.413Z,11.39
2016-10-28T06:28:14.110Z,11.51
2016-10-28T06:29:14.094Z,11.46
2016-10-28T06:30:14.087Z,11.58
2016-10-28T06:31:14.085Z,11.49
2016-10-28T06:32:14.077Z,11.55
2016-10-28T06:33:14.067Z,11.52
2016-10-28T06:34:14.063Z,11.6
2016-10-28T06:35:14.105Z,11.55
2016-10-28T06:36:14.051Z,11.61
2016-10-28T06:37:14.050Z,11.62
2016-10-28T06:38:14.340Z,11.72
2016-10-28T06:39:14.061Z,11.7
2016-10-28T06:40:14.326Z,11.73
2016-10-28T06:41:14.024Z,11.69
2016-10-28T06:42:14.003Z,11.7
2016-10-28T06:43:14.008Z,11.67
2016-10-28T06:44:13.999Z,11.69
2016-10-28T06:45:13.987Z,11.67
2016-10-28T06:46:13.985Z,11.75
2016-10-28T06:47:13.972Z,11.78
2016-10-28T06:48:13.972Z,11.69
2016-10-28T06:49:13.963Z,11.69
2016-10-28T06:50:13.954Z,11.67
2016-10-28T06:51:13.952Z,11.6
2016-10-28T06:52:13.944Z,11.49
2016-10-28T06:53:14.234Z,11.49
2016-10-28T06:54:13.932Z,11.64
2016-10-28T06:55:13.953Z,11.69
2016-10-28T06:56:13.946Z,11.64
2016-10-28T06:57:13.952Z,11.75
2016-10-28T06:58:13.925Z,11.72
2016-10-28T06:59:13.940Z,11.8
2016-10-28T07:00:13.928Z,11.82
2016-10-28T07:01:13.888Z,11.79
2016-10-28T07:02:13.942Z,11.78
2016-10-28T07:03:13.908Z,11.75
2016-10-28T07:04:13.859Z,11.76
2016-10-28T07:05:13.846Z,11.73
2016-10-28T07:06:13.850Z,11.75
2016-10-28T07:08:15.032Z,11.76
2016-10-28T07:09:14.122Z,11.75
2016-10-28T07:10:14.124Z,11.79
2016-10-28T07:11:13.811Z,11.82
2016-10-28T07:12:14.157Z,11.85
2016-10-28T07:13:14.295Z,11.79
2016-10-28T07:14:15.306Z,11.86
2016-10-28T07:15:16.029Z,11.91
2016-10-28T07:17:14.222Z,11.95
2016-10-28T07:18:15.590Z,11.98
2016-10-28T07:19:14.112Z,11.9
2016-10-28T07:20:13.748Z,11.94
2016-10-28T07:21:14.189Z,11.85
2016-10-28T07:22:13.738Z,11.94
2016-10-28T07:24:15.464Z,11.96
2016-10-28T07:25:13.709Z,11.86
2016-10-28T07:26:14.372Z,11.9
2016-10-28T07:27:14.084Z,11.94
2016-10-28T07:28:13.688Z,11.94
2016-10-28T07:29:13.989Z,11.94
2016-10-28T07:30:13.680Z,11.96
2016-10-28T07:31:13.677Z,12.12
2016-10-28T07:32:13.671Z,12.05
2016-10-28T07:33:13.662Z,12.17
2016-10-28T07:34:13.655Z,12.24
2016-10-28T07:35:13.650Z,12.21
2016-10-28T07:36:13.649Z,12.2
2016-10-28T07:37:13.638Z,12.32
2016-10-28T07:38:13.625Z,12.41
2016-10-28T07:39:13.630Z,12.37
2016-10-28T07:40:13.657Z,12.41
2016-10-28T07:41:13.612Z,12.41
2016-10-28T07:42:13.611Z,12.46
2016-10-28T07:43:13.612Z,12.45
2016-10-28T07:44:13.591Z,12.45
2016-10-28T07:45:13.585Z,12.52
2016-10-28T07:46:13.582Z,12.54
2016-10-28T07:47:13.574Z,12.6
2016-10-28T07:48:13.572Z,12.62
2016-10-28T07:49:13.563Z,12.59
2016-10-28T07:50:13.558Z,12.53
2016-10-28T07:51:13.547Z,12.45
2016-10-28T07:52:13.853Z,12.46
2016-10-28T07:53:13.542Z,12.39
2016-10-28T07:54:13.534Z,12.39
2016-10-28T07:55:13.523Z,12.45
2016-10-28T07:56:13.517Z,12.32
2016-10-28T07:57:13.511Z,12.38
2016-10-28T07:58:13.508Z,12.38
2016-10-28T07:59:13.801Z,12.38
2016-10-28T08:00:13.798Z,12.47
2016-10-28T08:01:13.484Z,12.46
2016-10-28T08:02:13.482Z,12.45
2016-10-28T08:03:13.509Z,12.47
2016-10-28T08:04:13.477Z,12.45
2016-10-28T08:05:13.462Z,12.46
2016-10-28T08:06:13.458Z,12.46
2016-10-28T08:07:13.449Z,12.41
2016-10-28T08:08:13.754Z,12.47
2016-10-28T08:09:13.443Z,12.46
2016-10-28T08:10:13.432Z,12.5
2016-10-28T08:11:13.424Z,12.54
2016-10-28T08:12:13.422Z,12.57
2016-10-28T08:13:13.413Z,12.56
2016-10-28T08:14:13.409Z,12.59
2016-10-28T08:15:13.409Z,12.7
2016-10-28T08:16:13.435Z,12.64
2016-10-28T08:17:13.389Z,12.68
2016-10-28T08:18:13.386Z,12.75
2016-10-28T08:19:13.378Z,12.74
2016-10-28T08:20:13.373Z,12.75
2016-10-28T08:21:13.367Z,12.75
2016-10-28T08:22:13.358Z,12.74
2016-10-28T08:23:13.353Z,12.72
2016-10-28T08:24:13.347Z,12.75
2016-10-28T08:25:13.339Z,12.89
2016-10-28T08:29:13.608Z,12.82
2016-10-28T08:30:13.317Z,12.83
2016-10-28T08:31:13.562Z,12.86
2016-10-28T08:32:14.186Z,12.85
2016-10-28T08:33:13.843Z,12.87
2016-10-28T08:34:13.633Z,12.77
2016-10-28T08:35:14.193Z,12.74
2016-10-28T08:36:28.838Z,12.77
2016-10-28T08:37:13.274Z,12.79
2016-10-28T08:38:13.582Z,12.72
2016-10-28T08:39:13.605Z,12.72
2016-10-28T08:40:13.251Z,12.78
2016-10-28T08:41:14.771Z,12.9
2016-10-28T08:42:13.749Z,12.85
2016-10-28T08:43:14.028Z,12.85
2016-10-28T08:44:13.247Z,12.95
2016-10-28T08:45:13.704Z,12.89
2016-10-28T08:46:13.551Z,12.97
2016-10-28T08:47:13.208Z,13.04
2016-10-28T08:48:13.210Z,13.03
2016-10-28T08:49:13.203Z,13.03
2016-10-28T08:50:13.207Z,13.11
2016-10-28T08:51:13.198Z,13.11
2016-10-28T08:52:13.189Z,13.11
2016-10-28T08:53:13.186Z,13.12
2016-10-28T08:54:13.173Z,13.17
2016-10-28T08:55:13.171Z,13.07
2016-10-28T08:56:13.210Z,13.17
2016-10-28T08:57:13.166Z,13.12
2016-10-28T08:58:13.150Z,13.29
2016-10-28T08:59:13.147Z,13.29
2016-10-28T09:00:13.146Z,13.26
2016-10-28T09:01:13.153Z,13.36
2016-10-28T09:02:13.130Z,13.41
2016-10-28T09:03:13.126Z,13.44
2016-10-28T09:04:13.117Z,13.46
2016-10-28T09:05:13.112Z,13.49
2016-10-28T09:06:13.114Z,13.59
2016-10-28T09:07:13.106Z,13.49
2016-10-28T09:08:13.097Z,13.62
2016-10-28T09:09:13.090Z,13.7
2016-10-28T09:10:13.089Z,13.73
2016-10-28T09:11:13.085Z,13.84
2016-10-28T09:12:13.075Z,13.71
2016-10-28T09:13:13.073Z,13.84
2016-10-28T09:14:13.063Z,13.85
2016-10-28T09:15:13.062Z,13.79
2016-10-28T09:16:13.053Z,13.88
2016-10-28T09:17:13.063Z,13.87
2016-10-28T09:18:13.041Z,14.02
2016-10-28T09:19:13.040Z,14.04
2016-10-28T09:20:13.043Z,14.12
2016-10-28T09:21:13.035Z,14.04
2016-10-28T09:22:13.025Z,14.06
2016-10-28T09:23:13.024Z,14
2016-10-28T09:24:13.020Z,13.92
2016-10-28T09:25:13.017Z,13.84
2016-10-28T09:26:13.012Z,14
2016-10-28T09:27:13.000Z,14.09
2016-10-28T09:28:12.998Z,14
2016-10-28T09:29:12.995Z,13.99
2016-10-28T09:30:12.987Z,14.06
2016-10-28T09:31:12.983Z,14.02
2016-10-28T09:32:13.288Z,14.06
2016-10-28T09:33:12.982Z,14.06
2016-10-28T09:34:12.967Z,14.06
2016-10-28T09:35:12.961Z,14.2
2016-10-28T09:36:12.961Z,14.18
2016-10-28T09:37:12.950Z,14.18
2016-10-28T09:38:12.953Z,14.25
2016-10-28T09:39:12.951Z,14.25
2016-10-28T09:40:12.944Z,14.29
2016-10-28T09:41:12.933Z,14.27
2016-10-28T09:42:12.938Z,14.32
2016-10-28T09:43:12.939Z,14.42
2016-10-28T09:46:13.564Z,14.58
2016-10-28T09:47:13.064Z,14.61
2016-10-28T09:48:13.607Z,14.61
2016-10-28T09:49:13.707Z,14.55
2016-10-28T09:50:13.552Z,14.57
2016-10-28T09:51:14.243Z,14.57
2016-10-28T09:52:13.406Z,14.52
2016-10-28T09:53:13.787Z,14.37
2016-10-28T09:54:47.266Z,14.27
2016-10-28T09:55:28.615Z,14.24
2016-10-28T09:57:12.870Z,14.29
2016-10-28T09:58:12.894Z,14.29
2016-10-28T09:59:14.376Z,14.37
2016-10-28T10:00:13.831Z,14.36
2016-10-28T10:01:13.835Z,14.39
2016-10-28T10:02:13.379Z,14.46
2016-10-28T10:03:12.875Z,14.54
2016-10-28T10:04:13.350Z,14.55
2016-10-28T10:05:12.827Z,14.58
2016-10-28T10:06:13.251Z,14.57
2016-10-28T10:07:12.823Z,14.57
2016-10-28T10:08:12.808Z,14.52
2016-10-28T10:09:12.806Z,14.57
2016-10-28T10:10:12.808Z,14.55
2016-10-28T10:11:12.799Z,14.51
2016-10-28T10:12:13.095Z,14.5
2016-10-28T10:13:12.813Z,14.42
2016-10-28T10:14:12.786Z,14.39
2016-10-28T10:15:12.776Z,14.28
2016-10-28T10:16:12.786Z,14.36
2016-10-28T10:17:12.804Z,14.54
2016-10-28T10:18:12.762Z,14.57
2016-10-28T10:19:12.765Z,14.62
2016-10-28T10:20:12.756Z,14.65
2016-10-28T10:21:12.752Z,14.78
2016-10-28T10:22:12.758Z,14.84
2016-10-28T10:23:12.759Z,14.77
2016-10-28T10:24:12.796Z,14.7
2016-10-28T10:25:12.732Z,14.72
2016-10-28T10:26:12.729Z,14.73
2016-10-28T10:27:13.029Z,14.75
2016-10-28T10:28:12.733Z,14.75
2016-10-28T10:29:12.727Z,14.72
2016-10-28T10:30:13.016Z,14.61
2016-10-28T10:31:12.708Z,14.73
2016-10-28T10:32:12.711Z,14.61
2016-10-28T10:33:12.705Z,14.6
2016-10-28T10:34:12.697Z,14.62
2016-10-28T10:35:12.696Z,14.69
2016-10-28T10:36:12.700Z,14.68
2016-10-28T10:37:12.688Z,14.61
2016-10-28T10:38:12.681Z,14.61
2016-10-28T10:39:12.675Z,14.58
2016-10-28T10:40:12.676Z,14.54
2016-10-28T10:41:12.671Z,14.54
2016-10-28T10:42:12.715Z,14.42
2016-10-28T10:43:12.657Z,14.43
2016-10-28T10:44:12.650Z,14.5
2016-10-28T10:45:12.656Z,14.43
2016-10-28T10:46:12.645Z,14.4
2016-10-28T10:47:12.643Z,14.36
2016-10-28T10:48:12.631Z,14.35
2016-10-28T10:49:12.635Z,14.37
2016-10-28T10:50:12.627Z,14.39
2016-10-28T10:51:12.623Z,14.42
2016-10-28T10:52:12.619Z,14.35
2016-10-28T10:53:12.619Z,14.42
2016-10-28T10:54:12.609Z,14.45
2016-10-28T10:55:12.606Z,14.51
2016-10-28T10:56:12.601Z,14.47
2016-10-28T10:57:12.603Z,14.5
2016-10-28T10:58:12.590Z,14.57
2016-10-28T10:59:12.591Z,14.54
2016-10-28T11:00:12.584Z,14.57
2016-10-28T11:01:12.584Z,14.61
2016-10-28T11:02:13.375Z,14.73
2016-10-28T11:03:12.719Z,14.81
2016-10-28T11:05:13.615Z,14.91
2016-10-28T11:06:12.559Z,14.98
2016-10-28T11:07:13.307Z,14.99
2016-10-28T11:08:14.566Z,14.95
2016-10-28T11:10:12.604Z,15.02
2016-10-28T11:11:13.239Z,14.94
2016-10-28T11:12:13.279Z,15.07
2016-10-28T11:13:13.821Z,14.94
2016-10-28T11:14:12.522Z,14.88
2016-10-28T11:15:13.368Z,14.89
2016-10-28T11:16:12.611Z,14.86
2016-10-28T11:17:12.864Z,14.81
2016-10-28T11:18:14.023Z,14.75
2016-10-28T11:19:12.806Z,14.7
2016-10-28T11:20:13.412Z,14.72
2016-10-28T11:21:13.025Z,14.62
2016-10-28T11:22:12.491Z,14.68
2016-10-28T11:23:12.486Z,14.62
2016-10-28T11:24:12.790Z,14.68
2016-10-28T11:25:12.510Z,14.7
2016-10-28T11:26:12.482Z,14.68
2016-10-28T11:27:12.470Z,14.62
2016-10-28T11:28:12.464Z,14.72
2016-10-28T11:29:12.467Z,14.68
2016-10-28T11:30:12.457Z,14.62
2016-10-28T11:31:12.459Z,14.65
2016-10-28T11:32:12.454Z,14.61
2016-10-28T11:33:12.446Z,14.6
2016-10-28T11:34:12.441Z,14.64
2016-10-28T11:35:12.435Z,14.58
2016-10-28T11:36:12.427Z,14.51
2016-10-28T11:37:12.422Z,14.5
2016-10-28T11:38:12.420Z,14.46
2016-10-28T11:39:12.410Z,14.46
2016-10-28T11:40:12.417Z,14.37
2016-10-28T11:41:12.407Z,14.47
2016-10-28T11:42:12.398Z,14.45
2016-10-28T11:43:12.394Z,14.35
2016-10-28T11:44:12.699Z,14.28
2016-10-28T11:45:12.391Z,14.32
2016-10-28T11:46:12.417Z,14.33
2016-10-28T11:47:12.679Z,14.35
2016-10-28T11:48:12.380Z,14.4
2016-10-28T11:49:12.408Z,14.35
2016-10-28T11:50:12.370Z,14.37
2016-10-28T11:51:12.662Z,14.35
2016-10-28T11:52:12.360Z,14.35
2016-10-28T11:53:12.388Z,14.33
2016-10-28T11:54:12.347Z,14.25
2016-10-28T11:55:12.346Z,14.28
2016-10-28T11:56:12.335Z,14.28
2016-10-28T11:57:12.633Z,14.32
2016-10-28T11:58:12.326Z,14.21
2016-10-28T11:59:12.330Z,14.24
2016-10-28T12:00:12.317Z,14.21
2016-10-28T12:01:12.316Z,14.12
2016-10-28T12:02:12.308Z,14.17
2016-10-28T12:03:12.303Z,14.14
2016-10-28T12:04:12.306Z,14.14
2016-10-28T12:05:12.297Z,14.15
2016-10-28T12:06:12.288Z,14.07
2016-10-28T12:07:12.290Z,14.14
2016-10-28T12:08:12.280Z,14.21
2016-10-28T12:09:12.271Z,14.14
2016-10-28T12:10:12.268Z,14.24
2016-10-28T12:11:12.268Z,14.24
2016-10-28T12:12:12.255Z,14.2
2016-10-28T12:13:12.251Z,14.2
2016-10-28T12:14:12.255Z,14.17
2016-10-28T12:15:12.245Z,14.12
2016-10-28T12:16:12.237Z,14.1
2016-10-28T12:17:12.237Z,14.17
2016-10-28T12:18:12.227Z,14.12
2016-10-28T12:19:12.221Z,14.03
2016-10-28T12:20:27.126Z,13.92
2016-10-28T12:21:13.215Z,13.85
2016-10-28T12:22:12.207Z,13.89
2016-10-28T12:23:12.437Z,13.89
2016-10-28T12:24:12.233Z,13.88
2016-10-28T12:25:12.192Z,13.89
2016-10-28T12:26:12.187Z,13.91
2016-10-28T12:27:14.834Z,13.96
2016-10-28T12:28:14.084Z,13.99
2016-10-28T12:29:12.472Z,14
2016-10-28T12:30:13.281Z,14.02
2016-10-28T12:31:13.305Z,14.07
2016-10-28T12:32:27.071Z,14.14
2016-10-28T12:33:13.705Z,14.07
2016-10-28T12:34:13.368Z,14.06
2016-10-28T12:35:12.148Z,14.12
2016-10-28T12:37:14.130Z,14.14
2016-10-28T12:38:12.589Z,14.07
2016-10-28T12:39:14.192Z,14.2
2016-10-28T12:40:12.115Z,14.2
2016-10-28T12:41:12.112Z,14.25
2016-10-28T12:42:12.110Z,14.15
2016-10-28T12:43:12.106Z,14.22
2016-10-28T12:44:12.100Z,14.18
2016-10-28T12:45:12.092Z,14.21
2016-10-28T12:46:12.085Z,14.24
2016-10-28T12:47:12.091Z,14.14
2016-10-28T12:48:12.081Z,14.09
2016-10-28T12:49:12.074Z,14.06
2016-10-28T12:50:12.068Z,14
2016-10-28T12:51:12.063Z,13.87
2016-10-28T12:52:12.063Z,13.97
2016-10-28T12:53:12.056Z,13.92
2016-10-28T12:54:12.047Z,13.82
2016-10-28T12:55:12.049Z,13.73
2016-10-28T12:56:12.034Z,13.77
2016-10-28T12:57:12.042Z,13.73
2016-10-28T12:58:12.031Z,13.75
2016-10-28T12:59:12.018Z,13.71
2016-10-28T13:00:12.017Z,13.78
2016-10-28T13:01:12.018Z,13.77
2016-10-28T13:02:12.013Z,13.75
2016-10-28T13:03:12.002Z,13.73
2016-10-28T13:04:11.998Z,13.64
2016-10-28T13:05:12.033Z,13.64
2016-10-28T13:06:11.987Z,13.57
2016-10-28T13:07:11.982Z,13.69
2016-10-28T13:08:11.976Z,13.77
2016-10-28T13:09:11.982Z,13.67
2016-10-28T13:10:11.965Z,13.55
2016-10-28T13:11:11.965Z,13.66
2016-10-28T13:12:11.957Z,13.73